createdAt,value
2022-10-18T00:00:10.272Z,24.99
2022-10-18T00:01:10.251Z,24.83
2022-10-18T00:02:10.343Z,24.94
2022-10-18T00:03:10.269Z,24.79
2022-10-18T00:04:10.249Z,24.92
2022-10-18T00:05:10.257Z,24.86
2022-10-18T00:06:10.242Z,24.9
2022-10-18T00:07:10.235Z,24.79
2022-10-18T00:08:11.287Z,24.92
2022-10-18T00:09:10.238Z,24.79
2022-10-18T00:10:10.251Z,24.92
2022-10-18T00:11:10.251Z,24.75
2022-10-18T00:12:10.257Z,24.99
2022-10-18T00:13:10.229Z,24.73
2022-10-18T00:14:10.248Z,24.95
2022-10-18T00:15:10.228Z,24.82
2022-10-18T00:16:10.254Z,24.89
2022-10-18T00:17:10.260Z,24.78
2022-10-18T00:18:10.243Z,24.96
2022-10-18T00:19:10.224Z,24.72
2022-10-18T00:20:10.220Z,24.94
2022-10-18T00:21:10.223Z,24.78
2022-10-18T00:22:10.288Z,24.92
2022-10-18T00:23:10.234Z,24.92
2022-10-18T00:24:10.237Z,24.91
2022-10-18T00:25:10.222Z,24.83
2022-10-18T00:26:10.218Z,25.04
2022-10-18T00:27:10.232Z,24.86
2022-10-18T00:28:10.210Z,24.97
2022-10-18T00:29:10.226Z,24.75
2022-10-18T00:30:10.209Z,24.92
2022-10-18T00:31:10.213Z,24.9
2022-10-18T00:32:10.252Z,24.87
2022-10-18T00:33:10.215Z,24.75
2022-10-18T00:34:10.212Z,24.9
2022-10-18T00:35:10.215Z,24.73
2022-10-18T00:36:10.203Z,24.94
2022-10-18T00:37:10.201Z,24.77
2022-10-18T00:38:10.195Z,24.91
2022-10-18T00:39:10.219Z,24.79
2022-10-18T00:40:10.204Z,24.95
2022-10-18T00:41:10.203Z,24.74
2022-10-18T00:42:10.192Z,24.89
2022-10-18T00:43:10.200Z,24.82
2022-10-18T00:44:10.210Z,25.02
2022-10-18T00:45:10.197Z,24.9
2022-10-18T00:46:10.189Z,24.92
2022-10-18T00:47:10.193Z,24.78
2022-10-18T00:48:10.230Z,25.07
2022-10-18T00:49:10.191Z,24.86
2022-10-18T00:50:10.206Z,24.91
2022-10-18T00:51:10.185Z,24.74
2022-10-18T00:52:10.183Z,24.79
2022-10-18T00:53:10.186Z,24.7
2022-10-18T00:54:10.186Z,24.85
2022-10-18T00:55:10.199Z,24.92
2022-10-18T00:56:10.183Z,25.05
2022-10-18T00:57:10.178Z,24.68
2022-10-18T00:58:10.177Z,24.86
2022-10-18T00:59:10.175Z,24.74
2022-10-18T01:00:10.244Z,24.93
2022-10-18T01:01:10.278Z,24.75
2022-10-18T01:02:10.300Z,24.82
2022-10-18T01:03:10.179Z,24.67
2022-10-18T01:04:10.202Z,24.9
2022-10-18T01:05:10.173Z,24.67
2022-10-18T01:06:10.173Z,24.89
2022-10-18T01:07:10.182Z,24.8
2022-10-18T01:08:10.164Z,25.06
2022-10-18T01:09:10.168Z,24.73
2022-10-18T01:10:10.163Z,24.93
2022-10-18T01:11:10.176Z,24.86
2022-10-18T01:12:10.185Z,24.97
2022-10-18T01:13:10.157Z,24.82
2022-10-18T01:14:10.161Z,24.92
2022-10-18T01:15:10.166Z,24.85
2022-10-18T01:16:10.159Z,24.95
2022-10-18T01:17:10.202Z,24.78
2022-10-18T01:18:10.154Z,24.85
2022-10-18T01:19:10.161Z,24.7
2022-10-18T01:20:10.175Z,24.85
2022-10-18T01:21:10.162Z,24.67
2022-10-18T01:22:10.163Z,24.86
2022-10-18T01:23:10.150Z,24.9
2022-10-18T01:24:10.146Z,24.94
2022-10-18T01:25:10.147Z,24.73
2022-10-18T01:26:10.143Z,24.9
2022-10-18T01:27:10.160Z,24.67
2022-10-18T01:28:10.147Z,24.86
2022-10-18T01:29:10.148Z,24.82
2022-10-18T01:30:10.148Z,24.92
2022-10-18T01:31:10.138Z,24.76
2022-10-18T01:32:10.151Z,24.87
2022-10-18T01:33:10.135Z,24.78
2022-10-18T01:34:10.147Z,25
2022-10-18T01:35:10.136Z,24.85
2022-10-18T01:36:10.177Z,24.91
2022-10-18T01:37:10.134Z,24.66
2022-10-18T01:38:10.130Z,24.89
2022-10-18T01:39:10.147Z,24.75
2022-10-18T01:40:10.134Z,24.95
2022-10-18T01:41:13.289Z,24.71
2022-10-18T01:42:10.129Z,24.74
2022-10-18T01:43:10.142Z,24.67
2022-10-18T01:44:10.123Z,24.94
2022-10-18T01:45:10.125Z,24.74
2022-10-18T01:46:10.199Z,24.92
2022-10-18T01:47:10.134Z,24.71
2022-10-18T01:48:10.129Z,24.86
2022-10-18T01:49:10.121Z,24.74
2022-10-18T01:50:10.125Z,24.87
2022-10-18T01:51:10.134Z,24.7
2022-10-18T01:52:10.148Z,24.81
2022-10-18T01:53:10.133Z,24.65
2022-10-18T01:54:10.116Z,24.89
2022-10-18T01:55:10.110Z,24.71
2022-10-18T01:56:10.128Z,24.89
2022-10-18T01:57:10.107Z,24.92
2022-10-18T01:58:10.123Z,24.94
2022-10-18T01:59:10.114Z,24.81
2022-10-18T02:00:10.109Z,24.82
2022-10-18T02:02:10.102Z,24.85
2022-10-18T02:03:10.116Z,24.65
2022-10-18T02:04:10.113Z,24.83
2022-10-18T02:05:10.104Z,24.65
2022-10-18T02:06:10.105Z,24.77
2022-10-18T02:07:10.101Z,24.64
2022-10-18T02:08:22.767Z,24.77
2022-10-18T02:09:10.094Z,24.75
2022-10-18T02:10:10.150Z,24.86
2022-10-18T02:11:10.088Z,24.68
2022-10-18T02:12:10.108Z,24.87
2022-10-18T02:13:10.107Z,24.71
2022-10-18T02:14:10.088Z,24.82
2022-10-18T02:15:10.093Z,24.7
2022-10-18T02:16:10.095Z,24.87
2022-10-18T02:17:10.132Z,24.62
2022-10-18T02:18:10.082Z,24.77
2022-10-18T02:19:10.086Z,24.68
2022-10-18T02:20:10.093Z,24.84
2022-10-18T02:21:10.082Z,24.68
2022-10-18T02:22:10.097Z,24.79
2022-10-18T02:23:10.098Z,24.68
2022-10-18T02:24:10.118Z,24.84
2022-10-18T02:25:10.078Z,24.79
2022-10-18T02:26:10.070Z,24.9
2022-10-18T02:27:10.069Z,24.65
2022-10-18T02:28:11.524Z,24.84
2022-10-18T02:29:10.091Z,24.69
2022-10-18T02:30:10.076Z,24.84
2022-10-18T02:31:10.069Z,24.72
2022-10-18T02:32:10.068Z,24.81
2022-10-18T02:33:10.066Z,24.7
2022-10-18T02:34:10.082Z,24.82
2022-10-18T02:35:10.077Z,24.65
2022-10-18T02:36:10.070Z,24.81
2022-10-18T02:37:10.079Z,24.65
2022-10-18T02:38:10.066Z,24.83
2022-10-18T02:39:10.075Z,24.7
2022-10-18T02:40:10.083Z,24.77
2022-10-18T02:41:10.062Z,24.65
2022-10-18T02:42:10.071Z,24.72
2022-10-18T02:43:10.061Z,24.62
2022-10-18T02:44:10.070Z,24.78
2022-10-18T02:45:10.057Z,24.66
2022-10-18T02:46:10.059Z,24.76
2022-10-18T02:47:10.054Z,24.65
2022-10-18T02:48:10.070Z,24.7
2022-10-18T02:49:10.051Z,24.68
2022-10-18T02:50:10.046Z,24.9
2022-10-18T02:51:10.083Z,24.64
2022-10-18T02:52:10.045Z,24.69
2022-10-18T02:53:10.048Z,24.74
2022-10-18T02:54:10.047Z,24.7
2022-10-18T02:55:10.056Z,24.65
2022-10-18T02:56:10.087Z,24.78
2022-10-18T02:57:10.050Z,24.65
2022-10-18T02:58:10.042Z,24.82
2022-10-18T02:59:10.034Z,24.67
2022-10-18T03:00:10.035Z,24.76
2022-10-18T03:01:10.131Z,24.68
2022-10-18T03:02:10.040Z,24.85
2022-10-18T03:03:10.034Z,24.67
2022-10-18T03:04:10.029Z,24.83
2022-10-18T03:05:10.033Z,24.65
2022-10-18T03:06:10.042Z,24.85
2022-10-18T03:07:10.037Z,24.7
2022-10-18T03:08:10.045Z,24.84
2022-10-18T03:09:10.029Z,24.63
2022-10-18T03:10:10.030Z,24.67
2022-10-18T03:11:10.046Z,24.7
2022-10-18T03:12:10.068Z,24.66
2022-10-18T03:13:10.022Z,24.64
2022-10-18T03:14:10.029Z,24.71
2022-10-18T03:15:11.031Z,24.64
2022-10-18T03:16:10.017Z,24.74
2022-10-18T03:17:10.067Z,24.64
2022-10-18T03:18:10.017Z,24.84
2022-10-18T03:19:10.012Z,24.69
2022-10-18T03:20:10.018Z,24.79
2022-10-18T03:21:10.053Z,24.67
2022-10-18T03:22:10.007Z,24.72
2022-10-18T03:23:10.014Z,24.63
2022-10-18T03:24:10.005Z,24.8
2022-10-18T03:25:10.007Z,24.65
2022-10-18T03:26:10.006Z,24.77
2022-10-18T03:27:10.016Z,24.71
2022-10-18T03:28:10.028Z,24.74
2022-10-18T03:29:10.060Z,24.62
2022-10-18T03:30:10.017Z,24.77
2022-10-18T03:31:10.003Z,24.6
2022-10-18T03:32:09.995Z,24.68
2022-10-18T03:33:10.001Z,24.58
2022-10-18T03:34:10.019Z,24.69
2022-10-18T03:35:09.994Z,24.62
2022-10-18T03:36:10.001Z,24.71
2022-10-18T03:37:10.010Z,24.62
2022-10-18T03:38:09.991Z,24.73
2022-10-18T03:39:10.006Z,24.57
2022-10-18T03:40:09.999Z,24.71
2022-10-18T03:41:09.995Z,24.67
2022-10-18T03:42:09.999Z,24.75
2022-10-18T03:43:09.998Z,24.67
2022-10-18T03:44:10.027Z,24.69
2022-10-18T03:45:09.989Z,24.65
2022-10-18T03:46:09.989Z,24.74
2022-10-18T03:47:09.982Z,24.65
2022-10-18T03:48:09.987Z,24.87
2022-10-18T03:49:09.997Z,24.62
2022-10-18T03:50:09.999Z,24.68
2022-10-18T03:51:09.984Z,24.61
2022-10-18T03:52:09.974Z,24.73
2022-10-18T03:53:09.970Z,24.71
2022-10-18T03:54:09.996Z,24.83
2022-10-18T03:55:09.978Z,24.73
2022-10-18T03:56:09.983Z,24.79
2022-10-18T03:57:09.972Z,24.58
2022-10-18T03:58:09.972Z,24.77
2022-10-18T03:59:09.987Z,24.62
2022-10-18T04:00:10.015Z,24.83
2022-10-18T04:01:10.025Z,24.69
2022-10-18T04:02:09.965Z,24.74
2022-10-18T04:03:09.979Z,24.68
2022-10-18T04:04:09.964Z,24.85
2022-10-18T04:05:09.960Z,24.7
2022-10-18T04:06:10.054Z,24.71
2022-10-18T04:07:09.963Z,24.57
2022-10-18T04:08:09.972Z,24.72
2022-10-18T04:09:10.359Z,24.68
2022-10-18T04:10:09.955Z,24.75
2022-10-18T04:11:09.983Z,24.65
2022-10-18T04:12:09.954Z,24.74
2022-10-18T04:13:09.972Z,24.67
2022-10-18T04:14:09.953Z,24.77
2022-10-18T04:15:09.954Z,24.65
2022-10-18T04:16:09.989Z,24.75
2022-10-18T04:17:09.952Z,24.71
2022-10-18T04:18:09.982Z,24.72
2022-10-18T04:19:09.955Z,24.72
2022-10-18T04:20:09.944Z,24.77
2022-10-18T04:21:09.938Z,24.64
2022-10-18T04:22:09.940Z,24.73
2022-10-18T04:23:09.945Z,24.81
2022-10-18T04:24:09.954Z,24.81
2022-10-18T04:25:09.942Z,24.91
2022-10-18T04:26:09.944Z,24.93
2022-10-18T04:27:09.945Z,24.73
2022-10-18T04:28:09.931Z,24.92
2022-10-18T04:29:10.076Z,24.73
2022-10-18T04:30:09.934Z,24.8
2022-10-18T04:31:09.931Z,24.65
2022-10-18T04:32:09.937Z,24.77
2022-10-18T04:33:09.938Z,24.62
2022-10-18T04:34:09.950Z,24.71
2022-10-18T04:35:09.953Z,24.62
2022-10-18T04:36:09.930Z,24.71
2022-10-18T04:37:09.927Z,24.61
2022-10-18T04:38:09.926Z,24.79
2022-10-18T04:39:09.938Z,24.63
2022-10-18T04:40:09.928Z,24.72
2022-10-18T04:41:09.920Z,24.6
2022-10-18T04:42:09.928Z,24.68
2022-10-18T04:43:09.916Z,24.65
2022-10-18T04:44:09.938Z,24.67
2022-10-18T04:45:09.932Z,24.65
2022-10-18T04:46:09.913Z,24.9
2022-10-18T04:47:09.915Z,24.63
2022-10-18T04:48:09.915Z,24.67
2022-10-18T04:49:09.915Z,24.6
2022-10-18T04:50:09.922Z,24.65
2022-10-18T04:51:09.947Z,24.81
2022-10-18T04:52:09.909Z,24.77
2022-10-18T04:53:09.917Z,24.62
2022-10-18T04:54:09.919Z,24.68
2022-10-18T04:55:09.903Z,24.57
2022-10-18T04:56:09.904Z,24.78
2022-10-18T04:57:09.904Z,24.63
2022-10-18T04:58:09.904Z,24.85
2022-10-18T04:59:09.916Z,24.74
2022-10-18T05:00:09.899Z,24.84
2022-10-18T05:01:09.895Z,24.91
2022-10-18T05:02:09.900Z,25.13
2022-10-18T05:03:09.892Z,24.87
2022-10-18T05:04:09.907Z,25.01
2022-10-18T05:05:11.775Z,24.77
2022-10-18T05:06:09.897Z,24.83
2022-10-18T05:07:09.913Z,24.79
2022-10-18T05:08:09.896Z,24.97
2022-10-18T05:09:09.901Z,24.67
2022-10-18T05:10:09.891Z,24.75
2022-10-18T05:12:09.885Z,24.9
2022-10-18T05:13:09.895Z,24.78
2022-10-18T05:14:09.882Z,24.79
2022-10-18T05:15:09.889Z,24.7
2022-10-18T05:16:09.885Z,24.87
2022-10-18T05:17:09.879Z,24.85
2022-10-18T05:18:09.929Z,24.97
2022-10-18T05:19:09.896Z,24.77
2022-10-18T05:20:10.075Z,25.04
2022-10-18T05:21:09.870Z,24.85
2022-10-18T05:22:09.887Z,24.92
2022-10-18T05:23:09.894Z,24.65
2022-10-18T05:24:09.870Z,24.89
2022-10-18T05:25:09.878Z,24.63
2022-10-18T05:26:09.871Z,24.86
2022-10-18T05:27:09.871Z,24.66
2022-10-18T05:28:34.079Z,24.75
2022-10-18T05:29:10.017Z,24.81
2022-10-18T05:30:09.879Z,25.04
2022-10-18T05:31:09.885Z,25
2022-10-18T05:32:09.857Z,24.94
2022-10-18T05:33:09.881Z,24.87
2022-10-18T05:34:09.867Z,24.87
2022-10-18T05:35:09.872Z,24.82
2022-10-18T05:36:09.883Z,24.95
2022-10-18T05:37:09.859Z,24.82
2022-10-18T05:38:09.859Z,25.14
2022-10-18T05:39:09.882Z,24.93
2022-10-18T05:40:09.869Z,24.95
2022-10-18T05:41:09.846Z,25.07
2022-10-18T05:42:09.845Z,25.09
2022-10-18T05:43:09.847Z,25.11
2022-10-18T05:44:09.859Z,25.11
2022-10-18T05:45:09.853Z,25.11
2022-10-18T05:46:14.582Z,25.24
2022-10-18T05:47:09.856Z,24.94
2022-10-18T05:48:09.845Z,25.08
2022-10-18T05:49:09.868Z,25.05
2022-10-18T05:50:09.852Z,25.15
2022-10-18T05:51:09.860Z,25.26
2022-10-18T05:52:09.839Z,25.64
2022-10-18T05:53:12.415Z,25.2
2022-10-18T05:54:09.856Z,25.05
2022-10-18T05:55:09.866Z,24.89
2022-10-18T05:56:09.833Z,25.13
2022-10-18T05:57:09.840Z,25.03
2022-10-18T05:58:09.850Z,25.15
2022-10-18T05:59:09.857Z,25.14
2022-10-18T06:00:09.851Z,25.25
2022-10-18T06:01:09.831Z,25.97
2022-10-18T06:02:09.875Z,25.75
2022-10-18T06:03:09.823Z,25.37
2022-10-18T06:04:09.838Z,25.18
2022-10-18T06:05:09.878Z,25.22
2022-10-18T06:06:09.832Z,25.63
2022-10-18T06:07:09.820Z,25.58
2022-10-18T06:08:10.387Z,25.55
2022-10-18T06:09:09.836Z,25.47
2022-10-18T06:10:09.818Z,25.68
2022-10-18T06:11:09.838Z,25.66
2022-10-18T06:12:09.818Z,25.71
2022-10-18T06:13:09.817Z,25.68
2022-10-18T06:14:09.838Z,25.61
2022-10-18T06:15:09.832Z,25.62
2022-10-18T06:16:09.817Z,25.73
2022-10-18T06:17:09.814Z,25.62
2022-10-18T06:18:09.842Z,25.9
2022-10-18T06:19:09.828Z,25.71
2022-10-18T06:20:09.807Z,25.68
2022-10-18T06:21:09.806Z,25.64
2022-10-18T06:22:09.822Z,25.77
2022-10-18T06:23:09.817Z,25.83
2022-10-18T06:24:09.843Z,25.95
2022-10-18T06:25:09.826Z,25.81
2022-10-18T06:26:09.805Z,26.05
2022-10-18T06:27:09.928Z,26.09
2022-10-18T06:28:11.518Z,25.84
2022-10-18T06:29:09.911Z,25.75
2022-10-18T06:30:09.799Z,25.87
2022-10-18T06:31:09.912Z,25.73
2022-10-18T06:32:09.796Z,25.75
2022-10-18T06:33:09.793Z,25.62
2022-10-18T06:34:09.811Z,25.69
2022-10-18T06:35:09.795Z,25.64
2022-10-18T06:36:09.795Z,25.98
2022-10-18T06:37:09.793Z,25.86
2022-10-18T06:38:09.813Z,25.84
2022-10-18T06:39:09.804Z,25.93
2022-10-18T06:40:09.807Z,25.94
2022-10-18T06:41:09.787Z,25.9
2022-10-18T06:42:09.796Z,26.11
2022-10-18T06:43:20.667Z,26.06
2022-10-18T06:44:09.796Z,26.17
2022-10-18T06:45:09.781Z,26.03
2022-10-18T06:46:09.816Z,26.13
2022-10-18T06:47:09.777Z,26.16
2022-10-18T06:48:09.908Z,26.25
2022-10-18T06:49:10.651Z,26.28
2022-10-18T06:50:09.787Z,26.27
2022-10-18T06:51:09.763Z,26.07
2022-10-18T06:52:09.774Z,26.04
2022-10-18T06:53:09.783Z,26.06
2022-10-18T06:54:18.358Z,25.95
2022-10-18T06:55:09.760Z,26.18
2022-10-18T06:56:09.768Z,26.19
2022-10-18T06:57:09.764Z,26.13
2022-10-18T06:58:09.767Z,26.16
2022-10-18T06:59:09.806Z,26.13
2022-10-18T07:00:09.784Z,26.17
2022-10-18T07:01:09.915Z,26.16
2022-10-18T07:02:09.759Z,26.14
2022-10-18T07:03:09.752Z,26.21
2022-10-18T07:04:09.775Z,26.14
2022-10-18T07:05:09.765Z,26.13
2022-10-18T07:06:09.760Z,26.29
2022-10-18T07:07:09.765Z,26.32
2022-10-18T07:08:09.754Z,25.94
2022-10-18T07:09:09.767Z,26.15
2022-10-18T07:10:12.935Z,26.35
2022-10-18T07:11:09.745Z,26.38
2022-10-18T07:12:09.755Z,26.17
2022-10-18T07:13:33.611Z,26.13
2022-10-18T07:14:12.620Z,26.12
2022-10-18T07:15:09.845Z,26.15
2022-10-18T07:16:11.600Z,26.1
2022-10-18T07:17:09.754Z,26.21
2022-10-18T07:18:09.769Z,26.29
2022-10-18T07:19:09.752Z,26.14
2022-10-18T07:20:09.743Z,26.13
2022-10-18T07:21:09.739Z,26.27
2022-10-18T07:22:09.770Z,26.59
2022-10-18T07:23:09.739Z,26.37
2022-10-18T07:24:09.755Z,26.3
2022-10-18T07:25:09.769Z,26.46
2022-10-18T07:26:09.746Z,26.35
2022-10-18T07:27:09.747Z,26.5
2022-10-18T07:28:09.767Z,26.58
2022-10-18T07:29:09.865Z,26.29
2022-10-18T07:30:09.743Z,26.37
2022-10-18T07:31:09.781Z,26.18
2022-10-18T07:32:09.740Z,26.4
2022-10-18T07:33:09.727Z,26.5
2022-10-18T07:34:09.741Z,26.41
2022-10-18T07:35:09.758Z,26.55
2022-10-18T07:36:09.727Z,26.52
2022-10-18T07:37:09.721Z,26.34
2022-10-18T07:38:09.723Z,26.53
2022-10-18T07:39:09.728Z,26.46
2022-10-18T07:40:09.748Z,26.48
2022-10-18T07:41:09.735Z,26.32
2022-10-18T07:42:09.710Z,26.3
2022-10-18T07:43:12.155Z,26.25
2022-10-18T07:44:09.708Z,26.59
2022-10-18T07:45:09.715Z,26.38
2022-10-18T07:46:09.710Z,26.61
2022-10-18T07:47:09.744Z,26.65
2022-10-18T07:48:09.715Z,26.28
2022-10-18T07:49:09.707Z,26.21
2022-10-18T07:50:09.706Z,26.4
2022-10-18T07:51:09.712Z,26.43
2022-10-18T07:52:09.698Z,26.65
2022-10-18T07:53:09.715Z,26.39
2022-10-18T07:54:09.712Z,26.3
2022-10-18T07:55:09.703Z,26.18
2022-10-18T07:56:09.869Z,26.1
2022-10-18T07:57:09.716Z,26.12
2022-10-18T07:58:09.754Z,26.41
2022-10-18T07:59:09.717Z,26.25
2022-10-18T08:00:09.697Z,26.4
2022-10-18T08:01:09.847Z,26.54
2022-10-18T08:02:09.697Z,26.52
2022-10-18T08:03:09.721Z,26.27
2022-10-18T08:04:13.966Z,26.36
2022-10-18T08:05:09.685Z,26.43
2022-10-18T08:06:09.709Z,26.44
2022-10-18T08:07:09.691Z,26.43
2022-10-18T08:08:09.682Z,26.56
2022-10-18T08:09:09.719Z,26.63
2022-10-18T08:10:09.681Z,26.65
2022-10-18T08:11:09.675Z,26.63
2022-10-18T08:12:09.683Z,26.57
2022-10-18T08:13:09.667Z,26.39
2022-10-18T08:14:09.693Z,26.25
2022-10-18T08:15:09.684Z,26.26
2022-10-18T08:16:09.669Z,26.18
2022-10-18T08:17:09.672Z,26.25
2022-10-18T08:18:09.811Z,26.38
2022-10-18T08:19:09.686Z,26.33
2022-10-18T08:20:12.206Z,26.19
2022-10-18T08:21:09.691Z,26.19
2022-10-18T08:22:09.682Z,26.19
2022-10-18T08:23:09.661Z,26.42
2022-10-18T08:24:09.662Z,26.39
2022-10-18T08:25:09.660Z,26.39
2022-10-18T08:26:09.671Z,26.21
2022-10-18T08:27:09.681Z,26.23
2022-10-18T08:28:09.721Z,26.2
2022-10-18T08:29:23.005Z,26.4
2022-10-18T08:30:09.653Z,26.21
2022-10-18T08:31:09.653Z,26.19
2022-10-18T08:32:09.735Z,26.12
2022-10-18T08:33:09.656Z,26.14
2022-10-18T08:34:09.655Z,26.4
2022-10-18T08:35:09.690Z,26.19
2022-10-18T08:36:09.678Z,26.19
2022-10-18T08:37:09.669Z,26.3
2022-10-18T08:38:09.656Z,26.39
2022-10-18T08:39:09.648Z,26.22
2022-10-18T08:40:09.656Z,26.16
2022-10-18T08:41:09.640Z,26.3
2022-10-18T08:42:09.658Z,26.33
2022-10-18T08:43:09.651Z,26.22
2022-10-18T08:44:09.646Z,26.26
2022-10-18T08:45:17.970Z,26.16
2022-10-18T08:46:09.640Z,26.17
2022-10-18T08:47:09.651Z,26.19
2022-10-18T08:48:09.638Z,26.25
2022-10-18T08:49:09.634Z,26.39
2022-10-18T08:50:09.647Z,26.38
2022-10-18T08:51:09.658Z,26.28
2022-10-18T08:52:09.636Z,26.42
2022-10-18T08:53:09.642Z,26.51
2022-10-18T08:54:09.632Z,26.41
2022-10-18T08:55:09.634Z,26.23
2022-10-18T08:56:09.628Z,26.35
2022-10-18T08:57:09.639Z,26.2
2022-10-18T08:58:09.680Z,26.27
2022-10-18T08:59:09.619Z,26.42
2022-10-18T09:00:09.624Z,26.54
2022-10-18T09:01:09.625Z,26.53
2022-10-18T09:02:09.620Z,26.49
2022-10-18T09:03:09.660Z,26.56
2022-10-18T09:04:09.615Z,26.6
2022-10-18T09:05:09.627Z,26.47
2022-10-18T09:06:09.612Z,26.63
2022-10-18T09:07:09.679Z,26.83
2022-10-18T09:08:09.619Z,26.75
2022-10-18T09:09:09.611Z,26.55
2022-10-18T09:10:09.723Z,26.56
2022-10-18T09:11:09.610Z,26.51
2022-10-18T09:12:09.628Z,26.56
2022-10-18T09:13:09.630Z,26.8
2022-10-18T09:14:09.608Z,26.7
2022-10-18T09:15:09.613Z,26.5
2022-10-18T09:16:09.611Z,26.51
2022-10-18T09:17:14.986Z,26.64
2022-10-18T09:18:09.644Z,26.43
2022-10-18T09:19:09.602Z,26.38
2022-10-18T09:20:09.614Z,26.54
2022-10-18T09:21:09.604Z,26.85
2022-10-18T09:22:09.768Z,26.9
2022-10-18T09:23:09.633Z,26.56
2022-10-18T09:24:09.596Z,26.55
2022-10-18T09:25:09.599Z,26.66
2022-10-18T09:26:09.610Z,26.8
2022-10-18T09:27:09.611Z,26.5
2022-10-18T09:28:09.589Z,25.68
2022-10-18T09:29:09.732Z,24.6
2022-10-18T09:30:09.580Z,24.3
2022-10-18T09:31:09.599Z,24.08
2022-10-18T09:32:09.596Z,24.2
2022-10-18T09:33:09.580Z,24.47
2022-10-18T09:34:09.598Z,23.88
2022-10-18T09:35:09.584Z,23.88
2022-10-18T09:36:09.600Z,24.11
2022-10-18T09:37:09.583Z,23.82
2022-10-18T09:38:09.581Z,24.03
2022-10-18T09:39:09.632Z,23.89
2022-10-18T09:40:09.576Z,23.87
2022-10-18T09:41:10.760Z,23.82
2022-10-18T09:42:09.569Z,23.97
2022-10-18T09:43:09.573Z,24.12
2022-10-18T09:44:09.592Z,23.62
2022-10-18T09:45:09.567Z,23.62
2022-10-18T09:46:09.597Z,23.77
2022-10-18T09:47:12.294Z,23.74
2022-10-18T09:48:09.573Z,23.71
2022-10-18T09:49:12.915Z,23.61
2022-10-18T09:50:09.565Z,23.63
2022-10-18T09:51:09.565Z,24.1
2022-10-18T09:52:09.589Z,23.75
2022-10-18T09:53:09.562Z,23.58
2022-10-18T09:54:09.572Z,23.52
2022-10-18T09:55:09.579Z,23.46
2022-10-18T09:56:09.619Z,23.4
2022-10-18T09:57:09.554Z,23.52
2022-10-18T09:58:09.585Z,23.69
2022-10-18T09:59:09.555Z,24.2
2022-10-18T10:00:09.558Z,24.27
2022-10-18T10:01:09.560Z,24.18
2022-10-18T10:02:09.576Z,24.19
2022-10-18T10:03:09.558Z,24.18
2022-10-18T10:04:10.550Z,24.61
2022-10-18T10:06:09.552Z,24.5
2022-10-18T10:07:09.545Z,24.26
2022-10-18T10:08:09.570Z,24.52
2022-10-18T10:09:09.572Z,24.44
2022-10-18T10:10:09.554Z,24.5
2022-10-18T10:11:09.563Z,24.42
2022-10-18T10:12:09.560Z,24.38
2022-10-18T10:13:09.541Z,24.51
2022-10-18T10:14:09.584Z,24.62
2022-10-18T10:15:09.544Z,24.55
2022-10-18T10:16:09.533Z,24.9
2022-10-18T10:17:09.530Z,24.91
2022-10-18T10:18:09.566Z,24.93
2022-10-18T10:19:09.548Z,24.86
2022-10-18T10:20:09.530Z,24.93
2022-10-18T10:21:09.531Z,24.8
2022-10-18T10:22:09.534Z,24.82
2022-10-18T10:23:09.592Z,24.74
2022-10-18T10:24:09.538Z,24.89
2022-10-18T10:25:09.525Z,25.15
2022-10-18T10:26:09.529Z,25.18
2022-10-18T10:27:09.547Z,25.2
2022-10-18T10:28:09.541Z,25.16
2022-10-18T10:29:17.599Z,25.37
2022-10-18T10:30:09.523Z,25.17
2022-10-18T10:31:09.514Z,24.89
2022-10-18T10:32:09.510Z,24.72
2022-10-18T10:33:09.538Z,24.67
2022-10-18T10:34:09.514Z,24.51
2022-10-18T10:35:13.622Z,24.9
2022-10-18T10:36:09.506Z,24.9
2022-10-18T10:37:09.505Z,24.53
2022-10-18T10:38:09.511Z,24.51
2022-10-18T10:39:09.502Z,24.83
2022-10-18T10:40:28.360Z,24.65
2022-10-18T10:41:09.503Z,24.69
2022-10-18T10:42:11.457Z,24.86
2022-10-18T10:43:18.137Z,25.04
2022-10-18T10:44:09.502Z,24.89
2022-10-18T10:45:09.504Z,24.67
2022-10-18T10:46:09.493Z,24.63
2022-10-18T10:47:09.514Z,24.37
2022-10-18T10:48:09.501Z,24.34
2022-10-18T10:49:38.612Z,24.19
2022-10-18T10:50:09.504Z,24.43
2022-10-18T10:51:09.495Z,24.77
2022-10-18T10:52:26.405Z,25.13
2022-10-18T10:53:09.495Z,25.03
2022-10-18T10:54:09.489Z,24.88
2022-10-18T10:55:30.761Z,24.84
2022-10-18T10:56:10.581Z,24.79
2022-10-18T10:57:09.504Z,24.69
2022-10-18T10:58:09.484Z,24.6
2022-10-18T10:59:09.590Z,24.42
2022-10-18T11:00:09.485Z,24.52
2022-10-18T11:01:11.295Z,24.62
2022-10-18T11:02:09.496Z,24.36
2022-10-18T11:03:27.305Z,24.47
2022-10-18T11:04:09.575Z,24.65
2022-10-18T11:05:09.481Z,24.69
2022-10-18T11:06:09.489Z,24.91
2022-10-18T11:07:09.490Z,24.86
2022-10-18T11:08:09.479Z,24.85
2022-10-18T11:09:09.469Z,24.92
2022-10-18T11:10:09.475Z,24.88
2022-10-18T11:11:09.471Z,24.52
2022-10-18T11:12:09.481Z,24.52
2022-10-18T11:13:09.475Z,24.43
2022-10-18T11:14:26.551Z,24.52
2022-10-18T11:15:09.493Z,24.4
2022-10-18T11:16:09.470Z,24.69
2022-10-18T11:17:09.527Z,24.31
2022-10-18T11:18:09.521Z,24.98
2022-10-18T11:19:09.462Z,25.37
2022-10-18T11:20:09.465Z,25.49
2022-10-18T11:21:09.462Z,25.55
2022-10-18T11:22:09.473Z,25.61
2022-10-18T11:23:09.454Z,25.51
2022-10-18T11:24:09.471Z,25.59
2022-10-18T11:25:09.462Z,25.68
2022-10-18T11:26:09.455Z,25.79
2022-10-18T11:27:10.439Z,25.67
2022-10-18T11:28:09.470Z,25.8
2022-10-18T11:29:09.445Z,25.73
2022-10-18T11:30:09.454Z,25.84
2022-10-18T11:31:09.474Z,25.69
2022-10-18T11:32:09.440Z,25.65
2022-10-18T11:33:09.456Z,25.75
2022-10-18T11:34:10.291Z,25.79
2022-10-18T11:35:09.445Z,25.85
2022-10-18T11:36:09.438Z,25.72
2022-10-18T11:37:27.252Z,25.7
2022-10-18T11:38:09.454Z,25.68
2022-10-18T11:39:09.445Z,25.64
2022-10-18T11:40:09.432Z,25.62
2022-10-18T11:41:09.448Z,25.66
2022-10-18T11:42:09.450Z,25.63
2022-10-18T11:43:09.434Z,25.66
2022-10-18T11:44:09.455Z,25.66
2022-10-18T11:45:09.424Z,25.66
2022-10-18T11:46:09.423Z,25.56
2022-10-18T11:47:09.496Z,25.43
2022-10-18T11:48:09.426Z,25.62
2022-10-18T11:49:09.433Z,25.77
2022-10-18T11:50:09.426Z,25.78
2022-10-18T11:51:09.438Z,25.91
2022-10-18T11:52:09.650Z,25.87
2022-10-18T11:53:09.424Z,25.92
2022-10-18T11:54:09.418Z,26
2022-10-18T11:55:09.437Z,26.13
2022-10-18T11:56:09.440Z,25.96
2022-10-18T11:57:09.424Z,25.69
2022-10-18T11:58:09.414Z,25.96
2022-10-18T11:59:09.416Z,25.81
2022-10-18T12:00:09.431Z,25.93
2022-10-18T12:01:09.414Z,26.05
2022-10-18T12:02:09.470Z,25.68
2022-10-18T12:03:09.548Z,25.69
2022-10-18T12:04:09.409Z,25.98
2022-10-18T12:05:23.232Z,26.14
2022-10-18T12:06:09.405Z,26.04
2022-10-18T12:07:09.409Z,25.87
2022-10-18T12:08:09.416Z,25.89
2022-10-18T12:09:09.404Z,26.01
2022-10-18T12:10:09.575Z,25.98
2022-10-18T12:11:09.395Z,25.94
2022-10-18T12:12:10.403Z,26.11
2022-10-18T12:13:09.400Z,26.14
2022-10-18T12:14:09.454Z,26.16
2022-10-18T12:15:09.409Z,26.16
2022-10-18T12:16:09.408Z,26.07
2022-10-18T12:17:39.292Z,26.06
2022-10-18T12:18:09.424Z,26.12
2022-10-18T12:19:09.424Z,26.32
2022-10-18T12:20:09.438Z,26.23
2022-10-18T12:21:09.403Z,26.26
2022-10-18T12:22:09.406Z,26.38
2022-10-18T12:23:09.418Z,26.3
2022-10-18T12:24:09.381Z,26.35
2022-10-18T12:25:09.381Z,26.41
2022-10-18T12:26:09.383Z,26.4
2022-10-18T12:27:09.378Z,26.37
2022-10-18T12:28:09.406Z,26.48
2022-10-18T12:29:09.377Z,26.56
2022-10-18T12:30:09.389Z,26.63
2022-10-18T12:31:10.777Z,26.65
2022-10-18T12:32:09.378Z,26.63
2022-10-18T12:33:27.093Z,26.44
2022-10-18T12:34:09.377Z,26.58
2022-10-18T12:35:09.409Z,26.55
2022-10-18T12:36:09.376Z,26.48
2022-10-18T12:37:09.367Z,26.47
2022-10-18T12:38:09.385Z,26.58
2022-10-18T12:39:09.382Z,26.6
2022-10-18T12:40:11.536Z,26.56
2022-10-18T12:41:09.371Z,26.51
2022-10-18T12:42:09.370Z,26.49
2022-10-18T12:43:09.375Z,26.44
2022-10-18T12:44:09.363Z,26.4
2022-10-18T12:45:09.377Z,26.41
2022-10-18T12:46:13.330Z,26.15
2022-10-18T12:47:09.360Z,26.18
2022-10-18T12:48:09.359Z,26.2
2022-10-18T12:49:09.374Z,26.2
2022-10-18T12:50:09.353Z,26.28
2022-10-18T12:51:09.377Z,26.28
2022-10-18T12:52:09.356Z,26.39
2022-10-18T12:53:09.350Z,26.53
2022-10-18T12:54:09.366Z,26.64
2022-10-18T12:55:11.815Z,26.51
2022-10-18T12:56:09.354Z,26.41
2022-10-18T12:57:09.352Z,26.44
2022-10-18T12:58:09.382Z,26.4